sensor_id;sensor_type;location;lat;lon;timestamp;P1;durP1;ratioP1;P2;durP2;ratioP2
5297;SDS011;14738;42.668;23.250;2024-03-02T00:00:19;25.03;;;17.83;;
5297;SDS011;14738;42.668;23.250;2024-03-02T00:02:46;25.07;;;18.13;;
5297;SDS011;14738;42.668;23.250;2024-03-02T00:05:13;28.33;;;18.20;;
5297;SDS011;14738;42.668;23.250;2024-03-02T00:07:44;24.70;;;18.00;;
5297;SDS011;14738;42.668;23.250;2024-03-02T00:10:11;30.00;;;18.13;;
5297;SDS011;14738;42.668;23.250;2024-03-02T00:12:41;21.87;;;16.67;;
5297;SDS011;14738;42.668;23.250;2024-03-02T00:17:55;23.23;;;16.67;;
5297;SDS011;14738;42.668;23.250;2024-03-02T00:20:24;25.37;;;17.33;;
5297;SDS011;14738;42.668;23.250;2024-03-02T00:22:53;27.20;;;16.97;;
5297;SDS011;14738;42.668;23.250;2024-03-02T00:25:38;23.47;;;16.20;;
5297;SDS011;14738;42.668;23.250;2024-03-02T00:28:09;21.40;;;15.87;;
5297;SDS011;14738;42.668;23.250;2024-03-02T00:31:12;23.30;;;15.87;;
5297;SDS011;14738;42.668;23.250;2024-03-02T00:33:34;25.90;;;16.60;;
5297;SDS011;14738;42.668;23.250;2024-03-02T00:36:02;30.73;;;18.67;;
5297;SDS011;14738;42.668;23.250;2024-03-02T00:38:28;22.03;;;15.83;;
5297;SDS011;14738;42.668;23.250;2024-03-02T00:40:55;26.90;;;16.57;;
5297;SDS011;14738;42.668;23.250;2024-03-02T00:43:42;23.70;;;16.37;;
5297;SDS011;14738;42.668;23.250;2024-03-02T00:46:11;25.70;;;16.60;;
5297;SDS011;14738;42.668;23.250;2024-03-02T00:48:37;22.77;;;16.07;;
5297;SDS011;14738;42.668;23.250;2024-03-02T00:51:04;23.00;;;14.93;;
5297;SDS011;14738;42.668;23.250;2024-03-02T00:53:29;23.80;;;16.00;;
5297;SDS011;14738;42.668;23.250;2024-03-02T00:55:57;26.90;;;18.37;;
5297;SDS011;14738;42.668;23.250;2024-03-02T00:58:23;23.53;;;16.27;;
5297;SDS011;14738;42.668;23.250;2024-03-02T01:00:49;25.40;;;15.67;;
5297;SDS011;14738;42.668;23.250;2024-03-02T01:03:15;26.70;;;16.37;;
5297;SDS011;14738;42.668;23.250;2024-03-02T01:05:43;24.80;;;17.30;;
5297;SDS011;14738;42.668;23.250;2024-03-02T01:08:09;25.37;;;18.00;;
5297;SDS011;14738;42.668;23.250;2024-03-02T01:10:35;26.23;;;18.57;;
5297;SDS011;14738;42.668;23.250;2024-03-02T01:13:00;25.27;;;18.20;;
5297;SDS011;14738;42.668;23.250;2024-03-02T01:15:26;27.30;;;18.57;;
5297;SDS011;14738;42.668;23.250;2024-03-02T01:17:51;30.00;;;19.37;;
5297;SDS011;14738;42.668;23.250;2024-03-02T01:20:16;29.40;;;19.47;;
5297;SDS011;14738;42.668;23.250;2024-03-02T01:22:42;30.80;;;19.37;;
5297;SDS011;14738;42.668;23.250;2024-03-02T01:25:08;28.33;;;19.50;;
5297;SDS011;14738;42.668;23.250;2024-03-02T01:27:33;29.80;;;19.40;;
5297;SDS011;14738;42.668;23.250;2024-03-02T01:29:59;34.50;;;21.20;;
5297;SDS011;14738;42.668;23.250;2024-03-02T01:32:25;37.53;;;21.93;;
5297;SDS011;14738;42.668;23.250;2024-03-02T01:34:50;31.33;;;20.17;;
5297;SDS011;14738;42.668;23.250;2024-03-02T01:37:16;32.10;;;20.10;;
5297;SDS011;14738;42.668;23.250;2024-03-02T01:39:41;28.37;;;19.10;;
5297;SDS011;14738;42.668;23.250;2024-03-02T01:42:06;31.00;;;19.87;;
5297;SDS011;14738;42.668;23.250;2024-03-02T01:44:32;31.50;;;18.20;;
5297;SDS011;14738;42.668;23.250;2024-03-02T01:46:57;33.00;;;19.70;;
5297;SDS011;14738;42.668;23.250;2024-03-02T01:49:23;28.40;;;18.53;;
5297;SDS011;14738;42.668;23.250;2024-03-02T01:51:48;30.37;;;20.73;;
5297;SDS011;14738;42.668;23.250;2024-03-02T01:54:13;31.50;;;20.90;;
5297;SDS011;14738;42.668;23.250;2024-03-02T01:56:39;34.83;;;20.90;;
5297;SDS011;14738;42.668;23.250;2024-03-02T01:59:04;32.63;;;20.60;;
5297;SDS011;14738;42.668;23.250;2024-03-02T02:01:30;30.60;;;19.73;;
5297;SDS011;14738;42.668;23.250;2024-03-02T02:03:56;27.60;;;18.97;;
5297;SDS011;14738;42.668;23.250;2024-03-02T02:06:21;28.80;;;20.17;;
5297;SDS011;14738;42.668;23.250;2024-03-02T02:08:47;33.10;;;20.47;;
5297;SDS011;14738;42.668;23.250;2024-03-02T02:11:15;31.50;;;20.47;;
5297;SDS011;14738;42.668;23.250;2024-03-02T02:13:41;27.10;;;19.57;;
5297;SDS011;14738;42.668;23.250;2024-03-02T02:16:07;29.27;;;20.53;;
5297;SDS011;14738;42.668;23.250;2024-03-02T02:18:33;34.03;;;21.80;;
5297;SDS011;14738;42.668;23.250;2024-03-02T02:20:59;28.33;;;19.57;;
5297;SDS011;14738;42.668;23.250;2024-03-02T02:23:24;29.83;;;19.77;;
5297;SDS011;14738;42.668;23.250;2024-03-02T02:25:50;38.20;;;20.30;;
5297;SDS011;14738;42.668;23.250;2024-03-02T02:28:15;29.50;;;20.37;;
5297;SDS011;14738;42.668;23.250;2024-03-02T02:30:41;30.67;;;20.33;;
5297;SDS011;14738;42.668;23.250;2024-03-02T02:33:06;28.67;;;20.33;;
5297;SDS011;14738;42.668;23.250;2024-03-02T02:35:31;30.97;;;19.30;;
5297;SDS011;14738;42.668;23.250;2024-03-02T02:37:57;32.60;;;20.87;;
5297;SDS011;14738;42.668;23.250;2024-03-02T02:40:24;35.07;;;22.83;;
5297;SDS011;14738;42.668;23.250;2024-03-02T02:42:49;40.73;;;23.33;;
5297;SDS011;14738;42.668;23.250;2024-03-02T02:45:17;40.43;;;22.43;;
5297;SDS011;14738;42.668;23.250;2024-03-02T02:47:42;35.17;;;23.10;;
5297;SDS011;14738;42.668;23.250;2024-03-02T02:50:09;33.80;;;21.60;;
5297;SDS011;14738;42.668;23.250;2024-03-02T02:52:37;39.20;;;22.70;;
5297;SDS011;14738;42.668;23.250;2024-03-02T02:55:04;41.67;;;23.27;;
5297;SDS011;14738;42.668;23.250;2024-03-02T02:57:34;30.53;;;21.80;;
5297;SDS011;14738;42.668;23.250;2024-03-02T03:00:05;40.13;;;24.90;;
5297;SDS011;14738;42.668;23.250;2024-03-02T03:02:38;39.90;;;24.87;;
5297;SDS011;14738;42.668;23.250;2024-03-02T03:05:04;40.43;;;24.03;;
5297;SDS011;14738;42.668;23.250;2024-03-02T03:07:33;40.03;;;22.33;;
5297;SDS011;14738;42.668;23.250;2024-03-02T03:10:02;42.57;;;23.50;;
5297;SDS011;14738;42.668;23.250;2024-03-02T03:12:29;34.93;;;23.67;;
5297;SDS011;14738;42.668;23.250;2024-03-02T03:14:55;37.73;;;23.20;;
5297;SDS011;14738;42.668;23.250;2024-03-02T03:17:23;36.00;;;22.67;;
5297;SDS011;14738;42.668;23.250;2024-03-02T03:19:49;32.10;;;21.60;;
5297;SDS011;14738;42.668;23.250;2024-03-02T03:22:15;33.50;;;22.10;;
5297;SDS011;14738;42.668;23.250;2024-03-02T03:24:40;32.60;;;22.50;;
5297;SDS011;14738;42.668;23.250;2024-03-02T03:27:06;36.67;;;23.13;;
5297;SDS011;14738;42.668;23.250;2024-03-02T03:29:31;36.50;;;23.10;;
5297;SDS011;14738;42.668;23.250;2024-03-02T03:31:57;35.10;;;23.30;;
5297;SDS011;14738;42.668;23.250;2024-03-02T03:34:22;36.50;;;24.60;;
5297;SDS011;14738;42.668;23.250;2024-03-02T03:36:48;33.30;;;22.17;;
5297;SDS011;14738;42.668;23.250;2024-03-02T03:39:13;41.53;;;24.97;;
5297;SDS011;14738;42.668;23.250;2024-03-02T03:41:40;37.33;;;24.20;;
5297;SDS011;14738;42.668;23.250;2024-03-02T03:44:05;40.60;;;24.20;;
5297;SDS011;14738;42.668;23.250;2024-03-02T03:46:31;37.47;;;23.97;;
5297;SDS011;14738;42.668;23.250;2024-03-02T03:48:56;39.30;;;25.53;;
5297;SDS011;14738;42.668;23.250;2024-03-02T03:51:22;44.90;;;25.17;;
5297;SDS011;14738;42.668;23.250;2024-03-02T03:53:50;41.33;;;24.40;;
5297;SDS011;14738;42.668;23.250;2024-03-02T03:56:15;42.47;;;25.93;;
5297;SDS011;14738;42.668;23.250;2024-03-02T03:58:40;40.00;;;25.30;;
5297;SDS011;14738;42.668;23.250;2024-03-02T04:01:06;41.43;;;25.40;;
5297;SDS011;14738;42.668;23.250;2024-03-02T04:03:31;40.00;;;24.73;;
5297;SDS011;14738;42.668;23.250;2024-03-02T04:05:57;40.83;;;24.87;;
5297;SDS011;14738;42.668;23.250;2024-03-02T04:08:22;40.37;;;25.73;;
5297;SDS011;14738;42.668;23.250;2024-03-02T04:10:48;43.37;;;25.83;;
5297;SDS011;14738;42.668;23.250;2024-03-02T04:13:13;39.70;;;24.10;;
5297;SDS011;14738;42.668;23.250;2024-03-02T04:15:39;39.07;;;24.87;;
5297;SDS011;14738;42.668;23.250;2024-03-02T04:18:05;39.60;;;26.00;;
5297;SDS011;14738;42.668;23.250;2024-03-02T04:20:31;48.00;;;26.83;;
5297;SDS011;14738;42.668;23.250;2024-03-02T04:22:56;44.03;;;26.93;;
5297;SDS011;14738;42.668;23.250;2024-03-02T04:25:22;39.07;;;24.90;;
5297;SDS011;14738;42.668;23.250;2024-03-02T04:27:47;42.93;;;26.17;;
5297;SDS011;14738;42.668;23.250;2024-03-02T04:30:12;42.33;;;25.33;;
5297;SDS011;14738;42.668;23.250;2024-03-02T04:32:38;42.23;;;25.50;;
5297;SDS011;14738;42.668;23.250;2024-03-02T04:35:04;44.10;;;25.77;;
5297;SDS011;14738;42.668;23.250;2024-03-02T04:37:31;43.80;;;25.97;;
5297;SDS011;14738;42.668;23.250;2024-03-02T04:39:58;44.83;;;26.50;;
5297;SDS011;14738;42.668;23.250;2024-03-02T04:42:23;42.07;;;26.90;;
5297;SDS011;14738;42.668;23.250;2024-03-02T04:44:49;45.70;;;26.80;;
5297;SDS011;14738;42.668;23.250;2024-03-02T04:47:15;42.90;;;27.43;;
5297;SDS011;14738;42.668;23.250;2024-03-02T04:49:40;41.57;;;25.07;;
5297;SDS011;14738;42.668;23.250;2024-03-02T04:52:06;46.93;;;28.50;;
5297;SDS011;14738;42.668;23.250;2024-03-02T04:54:31;43.30;;;24.73;;
5297;SDS011;14738;42.668;23.250;2024-03-02T04:56:56;41.70;;;27.00;;
5297;SDS011;14738;42.668;23.250;2024-03-02T04:59:22;41.30;;;26.80;;
5297;SDS011;14738;42.668;23.250;2024-03-02T05:01:47;43.30;;;28.00;;
5297;SDS011;14738;42.668;23.250;2024-03-02T05:04:13;44.73;;;25.33;;
5297;SDS011;14738;42.668;23.250;2024-03-02T05:06:39;47.70;;;27.07;;
5297;SDS011;14738;42.668;23.250;2024-03-02T05:09:08;48.23;;;26.83;;
5297;SDS011;14738;42.668;23.250;2024-03-02T05:11:34;43.73;;;26.40;;
5297;SDS011;14738;42.668;23.250;2024-03-02T05:14:02;43.03;;;26.93;;
5297;SDS011;14738;42.668;23.250;2024-03-02T05:16:28;47.73;;;27.80;;
5297;SDS011;14738;42.668;23.250;2024-03-02T05:18:53;47.23;;;27.80;;
5297;SDS011;14738;42.668;23.250;2024-03-02T05:21:19;43.83;;;27.70;;
5297;SDS011;14738;42.668;23.250;2024-03-02T05:23:45;52.50;;;28.00;;
5297;SDS011;14738;42.668;23.250;2024-03-02T05:26:13;40.10;;;26.87;;
5297;SDS011;14738;42.668;23.250;2024-03-02T05:28:38;44.33;;;26.50;;
5297;SDS011;14738;42.668;23.250;2024-03-02T05:31:04;43.60;;;27.20;;
5297;SDS011;14738;42.668;23.250;2024-03-02T05:33:30;40.67;;;25.13;;
5297;SDS011;14738;42.668;23.250;2024-03-02T05:35:56;45.07;;;27.27;;
5297;SDS011;14738;42.668;23.250;2024-03-02T05:38:22;43.80;;;25.70;;
5297;SDS011;14738;42.668;23.250;2024-03-02T05:40:47;40.10;;;25.87;;
5297;SDS011;14738;42.668;23.250;2024-03-02T05:43:13;39.40;;;26.07;;
5297;SDS011;14738;42.668;23.250;2024-03-02T05:45:38;44.50;;;26.20;;
5297;SDS011;14738;42.668;23.250;2024-03-02T05:48:05;37.40;;;25.23;;
5297;SDS011;14738;42.668;23.250;2024-03-02T05:50:34;42.57;;;25.90;;
5297;SDS011;14738;42.668;23.250;2024-03-02T05:52:59;43.37;;;27.60;;
5297;SDS011;14738;42.668;23.250;2024-03-02T05:55:25;45.00;;;26.77;;
5297;SDS011;14738;42.668;23.250;2024-03-02T05:57:50;41.53;;;25.03;;
5297;SDS011;14738;42.668;23.250;2024-03-02T06:00:30;43.47;;;27.00;;
5297;SDS011;14738;42.668;23.250;2024-03-02T06:02:56;42.53;;;27.97;;
5297;SDS011;14738;42.668;23.250;2024-03-02T06:05:22;41.40;;;26.93;;
5297;SDS011;14738;42.668;23.250;2024-03-02T06:07:47;45.27;;;27.70;;
5297;SDS011;14738;42.668;23.250;2024-03-02T06:10:12;41.83;;;26.70;;
5297;SDS011;14738;42.668;23.250;2024-03-02T06:12:38;42.57;;;27.13;;
5297;SDS011;14738;42.668;23.250;2024-03-02T06:15:03;42.47;;;26.80;;
5297;SDS011;14738;42.668;23.250;2024-03-02T06:17:29;44.90;;;26.33;;
5297;SDS011;14738;42.668;23.250;2024-03-02T06:19:55;42.20;;;26.47;;
5297;SDS011;14738;42.668;23.250;2024-03-02T06:22:20;49.97;;;27.23;;
5297;SDS011;14738;42.668;23.250;2024-03-02T06:24:48;41.90;;;25.67;;
5297;SDS011;14738;42.668;23.250;2024-03-02T06:27:13;40.30;;;26.57;;
5297;SDS011;14738;42.668;23.250;2024-03-02T06:29:38;43.60;;;26.97;;
5297;SDS011;14738;42.668;23.250;2024-03-02T06:32:04;41.13;;;26.87;;
5297;SDS011;14738;42.668;23.250;2024-03-02T06:34:29;43.73;;;27.33;;
5297;SDS011;14738;42.668;23.250;2024-03-02T06:36:55;44.50;;;27.10;;
5297;SDS011;14738;42.668;23.250;2024-03-02T06:39:20;43.80;;;28.50;;
5297;SDS011;14738;42.668;23.250;2024-03-02T06:41:46;42.87;;;26.90;;
5297;SDS011;14738;42.668;23.250;2024-03-02T06:44:12;49.73;;;27.87;;
5297;SDS011;14738;42.668;23.250;2024-03-02T06:46:38;43.03;;;27.13;;
5297;SDS011;14738;42.668;23.250;2024-03-02T06:49:03;45.30;;;28.30;;
5297;SDS011;14738;42.668;23.250;2024-03-02T06:51:29;51.57;;;28.90;;
5297;SDS011;14738;42.668;23.250;2024-03-02T06:53:55;42.63;;;26.70;;
5297;SDS011;14738;42.668;23.250;2024-03-02T06:56:20;53.43;;;29.20;;
5297;SDS011;14738;42.668;23.250;2024-03-02T06:58:46;48.87;;;30.43;;
5297;SDS011;14738;42.668;23.250;2024-03-02T07:01:12;45.90;;;29.50;;
5297;SDS011;14738;42.668;23.250;2024-03-02T07:03:37;50.83;;;31.83;;
5297;SDS011;14738;42.668;23.250;2024-03-02T07:06:04;46.80;;;29.10;;
5297;SDS011;14738;42.668;23.250;2024-03-02T07:08:30;43.03;;;27.33;;
5297;SDS011;14738;42.668;23.250;2024-03-02T07:10:55;42.10;;;26.70;;
5297;SDS011;14738;42.668;23.250;2024-03-02T07:13:21;38.13;;;24.77;;
5297;SDS011;14738;42.668;23.250;2024-03-02T07:15:47;37.17;;;25.43;;
5297;SDS011;14738;42.668;23.250;2024-03-02T07:18:27;37.23;;;24.20;;
5297;SDS011;14738;42.668;23.250;2024-03-02T07:20:53;40.37;;;26.40;;
5297;SDS011;14738;42.668;23.250;2024-03-02T07:23:18;35.47;;;24.10;;
5297;SDS011;14738;42.668;23.250;2024-03-02T07:25:45;38.57;;;21.43;;
5297;SDS011;14738;42.668;23.250;2024-03-02T07:28:11;31.30;;;20.70;;
5297;SDS011;14738;42.668;23.250;2024-03-02T07:30:36;38.00;;;24.10;;
5297;SDS011;14738;42.668;23.250;2024-03-02T07:33:03;26.97;;;19.10;;
5297;SDS011;14738;42.668;23.250;2024-03-02T07:35:29;30.40;;;20.70;;
5297;SDS011;14738;42.668;23.250;2024-03-02T07:37:56;33.90;;;19.87;;
5297;SDS011;14738;42.668;23.250;2024-03-02T07:40:22;44.53;;;24.30;;
5297;SDS011;14738;42.668;23.250;2024-03-02T07:42:48;28.40;;;18.47;;
5297;SDS011;14738;42.668;23.250;2024-03-02T07:45:14;24.37;;;17.53;;
5297;SDS011;14738;42.668;23.250;2024-03-02T07:47:40;31.53;;;17.20;;
5297;SDS011;14738;42.668;23.250;2024-03-02T07:50:05;30.03;;;17.80;;
5297;SDS011;14738;42.668;23.250;2024-03-02T07:52:31;37.00;;;21.40;;
5297;SDS011;14738;42.668;23.250;2024-03-02T07:54:57;31.33;;;19.13;;
5297;SDS011;14738;42.668;23.250;2024-03-02T07:57:22;30.37;;;20.60;;
5297;SDS011;14738;42.668;23.250;2024-03-02T07:59:48;34.13;;;20.90;;
5297;SDS011;14738;42.668;23.250;2024-03-02T08:02:14;33.17;;;21.07;;
5297;SDS011;14738;42.668;23.250;2024-03-02T08:04:40;27.33;;;19.37;;
5297;SDS011;14738;42.668;23.250;2024-03-02T08:07:06;29.17;;;18.37;;
5297;SDS011;14738;42.668;23.250;2024-03-02T08:09:31;30.50;;;19.60;;
5297;SDS011;14738;42.668;23.250;2024-03-02T08:11:56;34.37;;;20.93;;
5297;SDS011;14738;42.668;23.250;2024-03-02T08:14:23;37.20;;;22.40;;
5297;SDS011;14738;42.668;23.250;2024-03-02T08:16:49;35.00;;;22.33;;
5297;SDS011;14738;42.668;23.250;2024-03-02T08:19:14;33.20;;;22.77;;
5297;SDS011;14738;42.668;23.250;2024-03-02T08:21:40;38.00;;;21.37;;
5297;SDS011;14738;42.668;23.250;2024-03-02T08:24:06;41.37;;;24.10;;
5297;SDS011;14738;42.668;23.250;2024-03-02T08:26:32;37.20;;;24.67;;
5297;SDS011;14738;42.668;23.250;2024-03-02T08:28:57;40.50;;;25.00;;
5297;SDS011;14738;42.668;23.250;2024-03-02T08:31:23;35.90;;;22.90;;
5297;SDS011;14738;42.668;23.250;2024-03-02T08:33:49;44.17;;;24.70;;
5297;SDS011;14738;42.668;23.250;2024-03-02T08:36:14;36.67;;;24.23;;
5297;SDS011;14738;42.668;23.250;2024-03-02T08:38:40;42.23;;;25.10;;
5297;SDS011;14738;42.668;23.250;2024-03-02T08:41:06;39.77;;;25.67;;
5297;SDS011;14738;42.668;23.250;2024-03-02T08:43:32;39.00;;;23.33;;
5297;SDS011;14738;42.668;23.250;2024-03-02T08:45:58;35.20;;;23.20;;
5297;SDS011;14738;42.668;23.250;2024-03-02T08:48:23;36.90;;;23.20;;
5297;SDS011;14738;42.668;23.250;2024-03-02T08:50:49;37.40;;;21.63;;
5297;SDS011;14738;42.668;23.250;2024-03-02T08:53:14;37.03;;;23.63;;
5297;SDS011;14738;42.668;23.250;2024-03-02T08:55:44;34.93;;;21.47;;
5297;SDS011;14738;42.668;23.250;2024-03-02T08:58:12;33.10;;;21.27;;
5297;SDS011;14738;42.668;23.250;2024-03-02T09:00:38;30.17;;;20.00;;
5297;SDS011;14738;42.668;23.250;2024-03-02T09:03:04;30.50;;;20.13;;
5297;SDS011;14738;42.668;23.250;2024-03-02T09:05:29;35.40;;;20.80;;
5297;SDS011;14738;42.668;23.250;2024-03-02T09:07:54;43.53;;;22.00;;
5297;SDS011;14738;42.668;23.250;2024-03-02T09:10:20;26.00;;;18.90;;
5297;SDS011;14738;42.668;23.250;2024-03-02T09:12:45;25.43;;;17.30;;
5297;SDS011;14738;42.668;23.250;2024-03-02T09:15:11;32.67;;;21.73;;
5297;SDS011;14738;42.668;23.250;2024-03-02T09:17:37;30.30;;;20.57;;
5297;SDS011;14738;42.668;23.250;2024-03-02T09:20:02;25.50;;;18.60;;
5297;SDS011;14738;42.668;23.250;2024-03-02T09:22:29;25.47;;;18.40;;
5297;SDS011;14738;42.668;23.250;2024-03-02T09:24:55;25.43;;;17.30;;
5297;SDS011;14738;42.668;23.250;2024-03-02T09:27:20;26.50;;;17.50;;
5297;SDS011;14738;42.668;23.250;2024-03-02T09:29:46;28.60;;;18.17;;
5297;SDS011;14738;42.668;23.250;2024-03-02T09:32:14;33.50;;;18.40;;
5297;SDS011;14738;42.668;23.250;2024-03-02T09:34:40;28.03;;;19.23;;
5297;SDS011;14738;42.668;23.250;2024-03-02T09:37:05;27.90;;;18.47;;
5297;SDS011;14738;42.668;23.250;2024-03-02T09:39:31;31.93;;;19.13;;
5297;SDS011;14738;42.668;23.250;2024-03-02T09:41:57;26.43;;;17.17;;
5297;SDS011;14738;42.668;23.250;2024-03-02T09:44:24;26.20;;;16.67;;
5297;SDS011;14738;42.668;23.250;2024-03-02T09:46:50;28.80;;;18.30;;
5297;SDS011;14738;42.668;23.250;2024-03-02T09:49:17;24.47;;;16.10;;
5297;SDS011;14738;42.668;23.250;2024-03-02T09:51:46;27.30;;;18.77;;
5297;SDS011;14738;42.668;23.250;2024-03-02T09:54:13;23.17;;;16.50;;
5297;SDS011;14738;42.668;23.250;2024-03-02T09:56:41;25.67;;;16.90;;
5297;SDS011;14738;42.668;23.250;2024-03-02T09:59:06;24.50;;;17.03;;
5297;SDS011;14738;42.668;23.250;2024-03-02T10:01:32;25.90;;;16.80;;
5297;SDS011;14738;42.668;23.250;2024-03-02T10:04:00;21.57;;;14.33;;
5297;SDS011;14738;42.668;23.250;2024-03-02T10:06:27;24.23;;;15.47;;
5297;SDS011;14738;42.668;23.250;2024-03-02T10:08:54;25.53;;;16.83;;
5297;SDS011;14738;42.668;23.250;2024-03-02T10:11:30;28.47;;;18.70;;
5297;SDS011;14738;42.668;23.250;2024-03-02T10:14:09;25.53;;;18.43;;
5297;SDS011;14738;42.668;23.250;2024-03-02T10:16:39;28.17;;;18.03;;
5297;SDS011;14738;42.668;23.250;2024-03-02T10:21:48;31.60;;;21.70;;
5297;SDS011;14738;42.668;23.250;2024-03-02T10:24:14;29.40;;;20.20;;
5297;SDS011;14738;42.668;23.250;2024-03-02T10:26:40;27.13;;;18.37;;
5297;SDS011;14738;42.668;23.250;2024-03-02T10:29:07;31.30;;;21.53;;
5297;SDS011;14738;42.668;23.250;2024-03-02T10:31:33;25.97;;;18.33;;
5297;SDS011;14738;42.668;23.250;2024-03-02T10:33:59;27.93;;;19.87;;
5297;SDS011;14738;42.668;23.250;2024-03-02T10:36:25;29.20;;;20.70;;
5297;SDS011;14738;42.668;23.250;2024-03-02T10:38:51;31.23;;;20.50;;
5297;SDS011;14738;42.668;23.250;2024-03-02T10:41:22;30.40;;;20.30;;
5297;SDS011;14738;42.668;23.250;2024-03-02T10:43:49;29.87;;;19.33;;
5297;SDS011;14738;42.668;23.250;2024-03-02T10:46:19;26.77;;;19.10;;
5297;SDS011;14738;42.668;23.250;2024-03-02T10:48:45;29.60;;;20.60;;
5297;SDS011;14738;42.668;23.250;2024-03-02T10:51:11;27.57;;;19.17;;
5297;SDS011;14738;42.668;23.250;2024-03-02T10:53:37;29.77;;;19.73;;
5297;SDS011;14738;42.668;23.250;2024-03-02T10:56:02;30.13;;;21.00;;
5297;SDS011;14738;42.668;23.250;2024-03-02T10:58:32;32.90;;;22.00;;
5297;SDS011;14738;42.668;23.250;2024-03-02T11:01:02;28.93;;;19.43;;
5297;SDS011;14738;42.668;23.250;2024-03-02T11:03:33;32.20;;;21.20;;
5297;SDS011;14738;42.668;23.250;2024-03-02T11:06:00;30.87;;;21.23;;
5297;SDS011;14738;42.668;23.250;2024-03-02T11:08:32;31.27;;;19.90;;
5297;SDS011;14738;42.668;23.250;2024-03-02T11:11:09;29.83;;;20.70;;
5297;SDS011;14738;42.668;23.250;2024-03-02T11:13:42;28.30;;;19.63;;
5297;SDS011;14738;42.668;23.250;2024-03-02T11:19:03;36.93;;;23.87;;
5297;SDS011;14738;42.668;23.250;2024-03-02T11:21:34;37.67;;;23.40;;
5297;SDS011;14738;42.668;23.250;2024-03-02T11:24:00;31.30;;;20.17;;
5297;SDS011;14738;42.668;23.250;2024-03-02T11:26:27;29.03;;;20.50;;
5297;SDS011;14738;42.668;23.250;2024-03-02T11:28:53;31.30;;;20.70;;
5297;SDS011;14738;42.668;23.250;2024-03-02T11:31:19;31.60;;;20.83;;
5297;SDS011;14738;42.668;23.250;2024-03-02T11:33:44;35.77;;;21.90;;
5297;SDS011;14738;42.668;23.250;2024-03-02T11:36:10;41.47;;;27.37;;
5297;SDS011;14738;42.668;23.250;2024-03-02T11:38:35;44.00;;;26.00;;
5297;SDS011;14738;42.668;23.250;2024-03-02T11:41:07;40.03;;;25.07;;
5297;SDS011;14738;42.668;23.250;2024-03-02T11:43:37;38.17;;;25.00;;
5297;SDS011;14738;42.668;23.250;2024-03-02T11:46:04;40.10;;;25.23;;
5297;SDS011;14738;42.668;23.250;2024-03-02T11:48:37;36.03;;;25.80;;
5297;SDS011;14738;42.668;23.250;2024-03-02T11:51:04;37.17;;;24.33;;
5297;SDS011;14738;42.668;23.250;2024-03-02T11:53:29;40.73;;;25.67;;
5297;SDS011;14738;42.668;23.250;2024-03-02T11:55:57;36.37;;;24.50;;
5297;SDS011;14738;42.668;23.250;2024-03-02T11:58:23;39.20;;;25.20;;
5297;SDS011;14738;42.668;23.250;2024-03-02T12:00:51;36.90;;;22.27;;
5297;SDS011;14738;42.668;23.250;2024-03-02T12:03:21;38.63;;;24.27;;
5297;SDS011;14738;42.668;23.250;2024-03-02T12:05:50;37.47;;;23.70;;
5297;SDS011;14738;42.668;23.250;2024-03-02T12:08:18;35.10;;;25.03;;
5297;SDS011;14738;42.668;23.250;2024-03-02T12:10:43;39.57;;;23.73;;
5297;SDS011;14738;42.668;23.250;2024-03-02T12:13:21;37.00;;;24.50;;
5297;SDS011;14738;42.668;23.250;2024-03-02T12:15:47;45.40;;;22.23;;
5297;SDS011;14738;42.668;23.250;2024-03-02T12:18:13;31.90;;;22.13;;
5297;SDS011;14738;42.668;23.250;2024-03-02T12:20:38;31.40;;;21.83;;
5297;SDS011;14738;42.668;23.250;2024-03-02T12:23:04;37.90;;;24.03;;
5297;SDS011;14738;42.668;23.250;2024-03-02T12:25:31;37.03;;;23.43;;
5297;SDS011;14738;42.668;23.250;2024-03-02T12:27:59;36.13;;;23.73;;
5297;SDS011;14738;42.668;23.250;2024-03-02T12:30:26;34.37;;;21.83;;
5297;SDS011;14738;42.668;23.250;2024-03-02T12:32:54;35.33;;;23.20;;
5297;SDS011;14738;42.668;23.250;2024-03-02T12:35:20;32.70;;;20.67;;
5297;SDS011;14738;42.668;23.250;2024-03-02T12:37:49;32.90;;;24.43;;
5297;SDS011;14738;42.668;23.250;2024-03-02T12:40:16;35.17;;;21.47;;
5297;SDS011;14738;42.668;23.250;2024-03-02T12:42:43;34.10;;;23.77;;
5297;SDS011;14738;42.668;23.250;2024-03-02T12:45:10;30.97;;;21.47;;
5297;SDS011;14738;42.668;23.250;2024-03-02T12:47:36;31.40;;;21.00;;
5297;SDS011;14738;42.668;23.250;2024-03-02T12:50:03;31.73;;;23.00;;
5297;SDS011;14738;42.668;23.250;2024-03-02T12:52:29;35.50;;;23.83;;
5297;SDS011;14738;42.668;23.250;2024-03-02T12:54:57;32.03;;;21.63;;
5297;SDS011;14738;42.668;23.250;2024-03-02T12:57:26;31.23;;;21.80;;
5297;SDS011;14738;42.668;23.250;2024-03-02T13:00:03;37.83;;;25.23;;
5297;SDS011;14738;42.668;23.250;2024-03-02T13:02:40;34.07;;;25.67;;
5297;SDS011;14738;42.668;23.250;2024-03-02T13:05:06;32.40;;;23.63;;
5297;SDS011;14738;42.668;23.250;2024-03-02T13:07:36;32.97;;;22.30;;
5297;SDS011;14738;42.668;23.250;2024-03-02T13:10:02;32.57;;;23.50;;
5297;SDS011;14738;42.668;23.250;2024-03-02T13:12:28;38.33;;;26.60;;
5297;SDS011;14738;42.668;23.250;2024-03-02T13:14:55;37.37;;;25.60;;
5297;SDS011;14738;42.668;23.250;2024-03-02T13:17:23;30.67;;;23.77;;
5297;SDS011;14738;42.668;23.250;2024-03-02T13:22:23;36.17;;;25.83;;
5297;SDS011;14738;42.668;23.250;2024-03-02T13:24:49;34.10;;;24.47;;
5297;SDS011;14738;42.668;23.250;2024-03-02T13:27:15;39.20;;;25.20;;
5297;SDS011;14738;42.668;23.250;2024-03-02T13:29:44;35.20;;;24.50;;
5297;SDS011;14738;42.668;23.250;2024-03-02T13:32:10;33.00;;;23.20;;
5297;SDS011;14738;42.668;23.250;2024-03-02T13:34:35;36.70;;;25.83;;
5297;SDS011;14738;42.668;23.250;2024-03-02T13:37:04;35.43;;;24.00;;
5297;SDS011;14738;42.668;23.250;2024-03-02T13:39:30;33.87;;;22.73;;
5297;SDS011;14738;42.668;23.250;2024-03-02T13:41:59;31.47;;;23.10;;
5297;SDS011;14738;42.668;23.250;2024-03-02T13:44:30;31.87;;;22.60;;
5297;SDS011;14738;42.668;23.250;2024-03-02T13:46:56;33.43;;;23.33;;
5297;SDS011;14738;42.668;23.250;2024-03-02T13:49:23;31.63;;;23.90;;
5297;SDS011;14738;42.668;23.250;2024-03-02T13:51:48;34.17;;;23.50;;
5297;SDS011;14738;42.668;23.250;2024-03-02T13:54:14;34.77;;;25.17;;
5297;SDS011;14738;42.668;23.250;2024-03-02T13:56:39;38.37;;;24.43;;
5297;SDS011;14738;42.668;23.250;2024-03-02T13:59:06;35.70;;;24.17;;
5297;SDS011;14738;42.668;23.250;2024-03-02T14:01:32;31.20;;;22.67;;
5297;SDS011;14738;42.668;23.250;2024-03-02T14:03:58;33.70;;;24.07;;
5297;SDS011;14738;42.668;23.250;2024-03-02T14:06:23;32.27;;;22.67;;
5297;SDS011;14738;42.668;23.250;2024-03-02T14:08:48;31.67;;;23.30;;
5297;SDS011;14738;42.668;23.250;2024-03-02T14:11:14;38.10;;;23.70;;
5297;SDS011;14738;42.668;23.250;2024-03-02T14:13:43;30.33;;;21.97;;
5297;SDS011;14738;42.668;23.250;2024-03-02T14:16:12;34.10;;;23.23;;
5297;SDS011;14738;42.668;23.250;2024-03-02T14:18:37;34.63;;;22.33;;
5297;SDS011;14738;42.668;23.250;2024-03-02T14:21:03;35.10;;;25.10;;
5297;SDS011;14738;42.668;23.250;2024-03-02T14:23:28;35.67;;;24.87;;
5297;SDS011;14738;42.668;23.250;2024-03-02T14:25:54;37.40;;;25.23;;
5297;SDS011;14738;42.668;23.250;2024-03-02T14:28:20;36.13;;;26.17;;